Time;durP1;ratioP1;P1;durP2;ratioP2;P2;SDS_P1;SDS_P2;PMS_P1;PMS_P2;Temp;Humidity;BMP_temperature;BMP_pressure;BME280_temperature;BME280_humidity;BME280_pressure;Samples;Min_cycle;Max_cycle;Signal;HPM_P1;HPM_P2
2022/07/16 00:03:02;;;;;;;80.45;46.58;;;;;;;27.98;81.77;97686.44;5085971;28;20649;-75
2022/07/16 00:05:56;;;;;;;73.22;43.83;;;;;;;28.01;81.60;97691.25;5088858;28;20503;-79
2022/07/16 00:08:32;;;;;;;75.05;43.97;;;;;;;27.97;81.89;97695.06;5068977;28;20040;-78
2022/07/16 00:11:22;;;;;;;73.85;44.22;;;;;;;27.95;81.93;97692.66;5074143;28;20044;-79
2022/07/16 00:14:11;;;;;;;78.70;46.03;;;;;;;27.87;82.12;97691.63;5043522;28;20048;-79
2022/07/16 00:16:52;;;;;;;79.53;44.15;;;;;;;27.94;81.92;97691.06;5063675;28;20048;-80
2022/07/16 00:19:41;;;;;;;74.68;43.50;;;;;;;28.00;81.93;97695.16;5066552;28;20040;-78
2022/07/16 00:22:23;;;;;;;87.03;48.33;;;;;;;27.89;82.29;97705.09;5075134;28;20047;-78
2022/07/16 00:25:12;;;;;;;92.68;50.83;;;;;;;27.77;82.83;97696.88;5080378;28;20071;-79
2022/07/16 00:27:54;;;;;;;91.20;52.00;;;;;;;27.87;82.20;97701.84;5059708;28;20076;-78
2022/07/16 00:30:43;;;;;;;84.82;48.35;;;;;;;27.85;82.52;97698.66;5074492;28;20734;-79
2022/07/16 00:33:33;;;;;;;89.65;49.40;;;;;;;28.00;82.28;97694.34;5061782;28;20060;-78
2022/07/16 00:36:14;;;;;;;83.45;48.28;;;;;;;27.92;82.31;97702.44;5068855;28;20146;-77
2022/07/16 00:39:04;;;;;;;74.47;45.88;;;;;;;28.07;81.70;97705.56;5065442;28;20044;-78
2022/07/16 00:41:48;;;;;;;86.75;49.47;;;;;;;28.06;81.82;97709.47;5061020;28;20044;-79
2022/07/16 00:44:37;;;;;;;85.22;50.33;;;;;;;28.04;81.79;97709.03;5076496;28;20052;-79
2022/07/16 00:47:19;;;;;;;87.10;49.60;;;;;;;28.01;81.76;97712.50;5074163;27;20056;-79
2022/07/16 00:50:15;;;;;;;78.28;46.78;;;;;;;28.22;81.29;97710.31;5090367;28;20059;-78
2022/07/16 00:52:51;;;;;;;78.05;48.92;;;;;;;28.23;81.21;97708.34;5108132;27;20046;-80
2022/07/16 00:55:40;;;;;;;75.28;45.08;;;;;;;28.36;81.07;97718.13;5095395;27;20047;-79
2022/07/16 00:58:22;;;;;;;80.70;46.65;;;;;;;28.41;81.26;97703.25;5104211;27;20434;-79
2022/07/16 01:01:12;;;;;;;75.28;47.03;;;;;;;28.43;81.33;97710.03;5100017;28;20055;-79
2022/07/16 01:03:55;;;;;;;82.55;48.90;;;;;;;28.41;81.16;97711.53;5114904;27;20049;-77
2022/07/16 01:06:51;;;;;;;75.90;47.60;;;;;;;28.45;81.63;97716.00;5098699;28;20059;-77
2022/07/16 01:09:27;;;;;;;80.38;48.10;;;;;;;28.46;81.77;97711.28;5121429;27;20043;-79
2022/07/16 01:12:17;;;;;;;81.88;49.00;;;;;;;28.52;81.48;97718.16;5084547;28;20047;-80
2022/07/16 01:15:06;;;;;;;80.95;48.90;;;;;;;28.54;81.34;97712.28;5106857;27;20054;-77
2022/07/16 01:17:48;;;;;;;83.72;50.78;;;;;;;28.58;81.64;97725.00;5096154;27;20039;-76
2022/07/16 01:20:37;;;;;;;74.72;45.72;;;;;;;28.60;80.61;97733.72;5114369;27;20520;-78
2022/07/16 01:23:23;;;;;;;65.07;41.53;;;;;;;28.60;80.52;97725.44;5098948;27;20478;-78
2022/07/16 01:26:12;;;;;;;60.22;40.75;;;;;;;28.63;80.52;97732.22;5094033;28;20044;-79
2022/07/16 01:28:54;;;;;;;60.70;39.45;;;;;;;28.73;79.93;97739.94;5086160;28;20139;-78
2022/07/16 01:31:43;;;;;;;59.25;36.10;;;;;;;28.81;79.70;97738.16;5106215;28;20113;-77
2022/07/16 01:34:38;;;;;;;47.85;32.65;;;;;;;28.94;79.49;97744.38;5120726;27;20119;-77
2022/07/16 01:37:15;;;;;;;49.05;31.42;;;;;;;29.04;79.60;97739.09;5105317;27;20055;-79
2022/07/16 01:40:06;;;;;;;47.17;30.30;;;;;;;29.13;79.18;97735.38;5114281;27;20058;-80
2022/07/16 01:42:55;;;;;;;43.88;28.23;;;;;;;29.16;78.01;97745.69;5093433;28;20054;-78
2022/07/16 01:45:37;;;;;;;41.20;27.30;;;;;;;29.29;78.48;97744.38;5092256;28;20105;-79
2022/07/16 01:48:33;;;;;;;37.47;25.30;;;;;;;29.41;79.26;97747.03;5092113;27;20630;-78
2022/07/16 01:51:21;;;;;;;35.78;25.67;;;;;;;29.54;77.60;97744.94;5098340;28;20043;-78
2022/07/16 01:54:10;;;;;;;34.10;23.77;;;;;;;29.89;77.75;97746.03;5094385;28;20065;-79
2022/07/16 01:56:52;;;;;;;30.58;23.13;;;;;;;30.13;74.96;97751.22;5097043;28;20060;-78
2022/07/16 01:59:41;;;;;;;31.38;21.08;;;;;;;30.36;74.85;97748.53;5101704;27;20040;-77
2022/07/16 02:02:23;;;;;;;28.55;19.92;;;;;;;30.80;72.35;97747.22;5093543;28;20046;-78
2022/07/16 02:05:12;;;;;;;26.13;18.33;;;;;;;30.89;72.13;97753.31;5107388;28;20100;-77
2022/07/16 02:07:54;;;;;;;27.25;18.05;;;;;;;31.29;71.10;97748.38;5089169;28;20085;-77
2022/07/16 02:10:44;;;;;;;31.67;19.63;;;;;;;31.59;70.10;97748.41;5100672;28;20364;-78
2022/07/16 02:13:19;;;;;;;26.25;17.65;;;;;;;;;;5099438;28;20108;-77
2022/07/16 02:16:17;;;;;;;28.25;19.17;;;;;;;31.28;nan;97758.69;5069823;28;20095;-74
2022/07/16 02:18:54;;;;;;;33.95;20.58;;;;;;;31.36;nan;97760.38;5103974;28;20039;-77
2022/07/16 02:21:48;;;;;;;30.13;19.40;;;;;;;32.28;nan;97764.66;5099600;28;20685;-79
2022/07/16 02:24:24;;;;;;;30.08;18.58;;;;;;;32.58;nan;97772.91;5101361;28;20039;-78
2022/07/16 02:27:12;;;;;;;27.92;18.75;;;;;;;33.05;nan;97773.25;5104352;28;20043;-77
2022/07/16 02:29:54;;;;;;;28.60;18.20;;;;;;;33.15;nan;97772.56;5094759;28;20048;-77
2022/07/16 02:32:43;;;;;;;27.65;17.60;;;;;;;33.29;nan;97771.84;5115931;28;20620;-79
2022/07/16 02:35:25;;;;;;;31.00;18.35;;;;;;;33.59;nan;97770.78;5102906;27;20045;-77
2022/07/16 02:38:15;;;;;;;25.08;18.45;;;;;;;33.86;nan;97773.31;5119951;27;20047;-78
2022/07/16 02:40:57;;;;;;;22.02;16.27;;;;;;;33.30;nan;97767.88;5123048;27;20039;-78
2022/07/16 02:43:46;;;;;;;23.95;16.25;;;;;;;33.64;nan;97770.44;5100299;27;20051;-77
2022/07/16 02:46:28;;;;;;;25.25;16.58;;;;;;;34.00;nan;97773.38;5098660;28;20070;-77
2022/07/16 02:49:24;;;;;;;23.52;14.75;;;;;;;33.76;nan;97771.28;5101578;27;20588;-77
2022/07/16 02:52:13;;;;;;;20.02;14.35;;;;;;;34.20;nan;97773.03;5111664;27;20454;-77
2022/07/16 02:54:55;;;;;;;20.95;16.10;;;;;;;34.22;nan;97774.22;5095030;28;20048;-77
2022/07/16 02:57:44;;;;;;;23.30;16.70;;;;;;;34.11;nan;97776.97;5099155;28;20718;-78
2022/07/16 03:00:28;;;;;;;30.67;16.35;;;;;;;34.23;nan;97783.41;5102780;27;20043;-77
2022/07/16 03:03:16;;;;;;;22.92;16.10;;;;;;;34.85;nan;97779.47;5100078;28;20042;-78
2022/07/16 03:05:59;;;;;;;24.83;16.42;;;;;;;35.10;nan;97774.69;5122301;27;20067;-77
2022/07/16 03:08:55;;;;;;;27.45;17.42;;;;;;;34.24;nan;97768.28;5111635;27;20040;-78
2022/07/16 03:11:31;;;;;;;24.15;18.00;;;;;;;34.37;nan;97769.47;5121299;27;20647;-78
2022/07/16 03:14:19;;;;;;;28.27;18.92;;;;;;;34.45;nan;97773.06;5123199;27;20546;-78
2022/07/16 03:17:08;;;;;;;26.38;18.83;;;;;;;34.23;nan;97772.25;5119933;27;20041;-75
2022/07/16 03:19:50;;;;;;;30.55;19.40;;;;;;;34.66;nan;97770.31;5098961;27;20666;-78
2022/07/16 03:22:39;;;;;;;27.20;20.45;;;;;;;34.71;nan;97775.50;5118753;27;21461;-78
2022/07/16 03:25:21;;;;;;;27.92;21.05;;;;;;;34.32;nan;97781.03;5096611;28;20434;-79
2022/07/16 03:28:10;;;;;;;28.20;21.48;;;;;;;34.54;nan;97778.25;5094508;28;20050;-78
2022/07/16 03:30:52;;;;;;;29.73;21.15;;;;;;;34.73;nan;97782.69;5099633;28;20325;-78
2022/07/16 03:33:41;;;;;;;33.55;22.35;;;;;;;34.94;nan;97790.25;5090140;28;20341;-77
2022/07/16 03:36:23;;;;;;;34.30;22.13;;;;;;;35.29;nan;97792.19;5095043;28;20036;-78
2022/07/16 03:39:12;;;;;;;39.97;25.52;;;;;;;35.06;nan;97789.81;5097747;28;20044;-77
2022/07/16 03:41:54;;;;;;;38.88;25.40;;;;;;;35.38;nan;97786.22;5097906;28;20366;-76
2022/07/16 03:44:43;;;;;;;32.40;23.27;;;;;;;35.41;nan;97791.78;5103722;28;20637;-77
2022/07/16 03:47:25;;;;;;;33.50;21.10;;;;;;;36.05;nan;97799.13;5096348;28;20050;-77
2022/07/16 03:50:20;;;;;;;29.70;19.70;;;;;;;36.17;nan;97781.16;5087989;28;20437;-77
2022/07/16 03:53:09;;;;;;;32.60;17.88;;;;;;;36.52;nan;97792.50;5116552;27;20058;-78
2022/07/16 03:55:58;;;;;;;22.27;13.57;;;;;;;36.55;nan;97791.66;5098986;28;20040;-78
2022/07/16 03:58:48;;;;;;;17.40;11.27;;;;;;;36.49;nan;97793.31;5096274;28;20666;-76
2022/07/16 04:01:31;;;;;;;18.50;11.43;;;;;;;35.70;nan;97791.72;5087968;28;20044;-78
2022/07/16 04:04:20;;;;;;;18.45;10.35;;;;;;;36.44;nan;97784.16;5097246;28;20035;-78
2022/07/16 04:07:09;;;;;;;20.15;11.77;;;;;;;35.67;nan;97792.50;5094902;28;20344;-77
2022/07/16 04:09:51;;;;;;;22.63;13.20;;;;;;;36.23;nan;97790.69;5098311;28;20109;-77
2022/07/16 04:12:40;;;;;;;22.60;12.13;;;;;;;36.59;nan;97789.63;5094718;28;20621;-77
2022/07/16 04:15:22;;;;;;;20.55;13.45;;;;;;;36.88;nan;97790.25;5097453;28;20036;-76
2022/07/16 04:18:12;;;;;;;22.23;13.68;;;;;;;36.76;nan;97797.09;5093862;28;20052;-77
2022/07/16 04:20:54;;;;;;;20.58;13.30;;;;;;;36.98;nan;97791.34;5103264;28;20051;-76
2022/07/16 04:23:43;;;;;;;19.08;12.68;;;;;;;36.99;nan;97793.75;5099602;28;20421;-75
2022/07/16 04:26:32;;;;;;;32.60;16.05;;;;;;;37.65;nan;97791.91;5104961;28;20099;-75
2022/07/16 04:29:14;;;;;;;32.30;18.08;;;;;;;37.61;nan;97794.75;5101775;28;20054;-76
2022/07/16 04:32:04;;;;;;;34.85;17.75;;;;;;;37.84;nan;97807.28;5095225;28;20046;-73
2022/07/16 04:34:46;;;;;;;;;;;;;;;38.42;nan;97795.31;5096527;28;21284;-73
2022/07/16 04:37:42;;;;;;;11.98;8.02;;;;;;;38.53;nan;97795.94;5094840;28;20699;-72
2022/07/16 04:40:18;;;;;;;17.40;8.23;;;;;;;37.91;nan;97801.59;5095666;28;20046;-71
2022/07/16 04:43:13;;;;;;;;;;;;;;;38.03;nan;97808.63;5094883;28;20040;-72
2022/07/16 04:45:49;;;;;;;12.02;7.88;;;;;;;37.67;nan;97797.09;5093958;28;21770;-72
2022/07/16 04:48:44;;;;;;;;;;;;;;;37.55;nan;97806.78;5097434;28;20496;-71
2022/07/16 04:51:33;;;;;;;16.67;8.68;;;;;;;37.26;nan;97806.28;5093127;28;20807;-70
2022/07/16 04:54:22;;;;;;;16.63;9.32;;;;;;;37.50;nan;97804.44;5100743;28;20050;-71
2022/07/16 04:57:04;;;;;;;10.38;7.65;;;;;;;38.04;nan;97806.63;5096877;28;20043;-71
2022/07/16 04:59:53;;;;;;;13.25;7.20;;;;;;;38.22;nan;97797.97;5096863;28;21624;-69
2022/07/16 05:05:44;;;;;;;8.20;5.38;;;;;;;38.47;nan;97792.03;5091451;28;20626;-73
2022/07/16 05:08:26;;;;;;;17.55;7.05;;;;;;;38.06;nan;97793.75;5082220;28;20044;-70
2022/07/16 05:11:20;;;;;;;9.05;5.70;;;;;;;37.66;nan;97795.47;5087730;28;20040;-70
2022/07/16 05:14:02;;;;;;;9.90;5.70;;;;;;;38.32;nan;97791.44;5088501;28;20046;-71
2022/07/16 05:16:51;;;;;;;14.90;7.10;;;;;;;38.42;nan;97789.69;5064913;28;20631;-71
2022/07/16 05:19:33;;;;;;;8.35;4.50;;;;;;;37.79;nan;97788.13;5093250;27;21296;-69
2022/07/16 05:22:22;;;;;;;6.00;3.42;;;;;;;37.84;nan;97792.47;5086339;28;20048;-70
2022/07/16 05:25:11;;;;;;;7.07;3.40;;;;;;;37.89;nan;97794.78;5099821;28;20077;-68
2022/07/16 05:27:53;;;;;;;8.65;3.78;;;;;;;38.07;nan;97791.78;5090305;28;20044;-70
2022/07/16 05:30:42;;;;;;;3.15;2.60;;;;;;;38.45;nan;97794.47;5084310;28;20837;-69
2022/07/16 05:33:24;;;;;;;2.95;2.10;;;;;;;38.17;nan;97797.25;5084508;28;20044;-70
2022/07/16 05:36:13;;;;;;;2.40;2.10;;;;;;;38.06;nan;97792.97;5084943;28;20738;-69
2022/07/16 05:38:55;;;;;;;3.85;1.83;;;;;;;38.08;nan;97796.19;5085561;28;20555;-70
2022/07/16 05:41:50;;;;;;;7.30;1.85;;;;;;;38.58;nan;97787.06;5083746;28;20040;-70
2022/07/16 05:44:26;;;;;;;2.78;2.00;;;;;;;38.11;nan;97798.16;5084907;28;20044;-70
2022/07/16 05:47:21;;;;;;;4.80;2.00;;;;;;;38.35;nan;97794.19;5085215;28;20043;-70
2022/07/16 05:50:07;;;;;;;2.00;1.83;;;;;;;38.41;nan;97788.09;5085730;28;20058;-70
2022/07/16 05:52:56;;;;;;;5.30;2.33;;;;;;;38.37;nan;97788.16;5098791;28;20568;-70
2022/07/16 05:55:38;;;;;;;6.43;2.40;;;;;;;38.41;nan;97788.09;5091030;28;21390;-70
2022/07/16 05:58:27;;;;;;;3.13;2.80;;;;;;;38.13;nan;97787.31;5101115;28;20036;-70
2022/07/16 06:01:09;;;;;;;2.90;1.80;;;;;;;38.49;nan;97784.00;5104939;28;20035;-70
2022/07/16 06:03:58;;;;;;;4.72;2.60;;;;;;;38.65;nan;97784.13;5097447;28;20040;-70
2022/07/16 06:06:40;;;;;;;4.13;2.50;;;;;;;38.63;nan;97769.75;5091246;28;20536;-70
2022/07/16 06:09:29;;;;;;;2.38;2.03;;;;;;;37.66;nan;97773.09;5084705;28;20040;-69
2022/07/16 06:12:11;;;;;;;4.45;2.30;;;;;;;37.27;nan;97772.31;5084955;28;20040;-69
2022/07/16 06:15:00;;;;;;;2.60;2.25;;;;;;;37.84;nan;97776.47;5105824;28;20038;-69
2022/07/16 06:17:42;;;;;;;4.82;2.55;;;;;;;37.92;nan;97768.75;5117581;28;20656;-68
2022/07/16 06:20:31;;;;;;;3.08;2.00;;;;;;;37.88;nan;97765.22;5105403;28;20690;-71
2022/07/16 06:23:13;;;;;;;4.53;2.37;;;;;;;37.87;nan;97764.41;4749646;28;9999672;-67
2022/07/16 06:26:02;;;;;;;5.30;2.50;;;;;;;37.83;nan;97763.66;5101993;28;20443;-68
2022/07/16 06:28:44;;;;;;;2.65;1.85;;;;;;;37.89;nan;97756.41;5101267;28;20824;-69
2022/07/16 06:31:33;;;;;;;4.88;1.83;;;;;;;37.72;nan;97757.41;5100187;28;20637;-70
2022/07/16 06:34:15;;;;;;;3.25;1.95;;;;;;;37.45;nan;97752.50;5091810;28;20040;-68
2022/07/16 06:37:04;;;;;;;1.75;1.60;;;;;;;37.78;nan;97741.75;5092817;28;20794;-72
2022/07/16 06:39:46;;;;;;;1.77;1.63;;;;;;;37.89;nan;97747.19;5088994;28;20696;-71
2022/07/16 06:42:35;;;;;;;3.38;1.63;;;;;;;37.66;nan;97739.50;5100253;28;20593;-73
2022/07/16 06:45:18;;;;;;;3.28;1.88;;;;;;;37.67;nan;97735.50;5087364;28;20040;-71
2022/07/16 06:48:07;;;;;;;2.45;1.30;;;;;;;36.99;nan;97732.22;5089765;28;20051;-69
2022/07/16 06:51:03;;;;;;;1.98;1.20;;;;;;;37.49;nan;97732.88;5095177;28;21022;-73
2022/07/16 06:53:53;;;;;;;3.10;1.23;;;;;;;37.42;nan;97725.38;4763450;27;9999836;-73
2022/07/16 06:56:42;;;;;;;2.15;1.38;;;;;;;37.44;nan;97731.34;5111274;27;20615;-71
2022/07/16 06:59:31;;;;;;;5.63;2.95;;;;;;;37.75;nan;97736.97;5114835;27;20043;-70
2022/07/16 07:02:19;;;;;;;1.90;1.38;;;;;;;37.59;nan;97729.94;5107545;27;20053;-72
2022/07/16 07:05:01;;;;;;;5.25;2.20;;;;;;;37.06;nan;97722.94;5098173;27;20054;-71
2022/07/16 07:07:50;;;;;;;4.95;1.55;;;;;;;37.07;nan;97727.34;5099588;27;20040;-72
2022/07/16 07:10:45;;;;;;;6.70;1.90;;;;;;;37.00;nan;97724.59;5113216;27;20615;-70
2022/07/16 07:13:21;;;;;;;3.42;1.80;;;;;;;36.94;nan;97717.88;5111388;27;20035;-73
2022/07/16 07:16:16;;;;;;;1.70;1.60;;;;;;;37.08;nan;97725.31;5115553;27;20082;-76
2022/07/16 07:18:52;;;;;;;1.95;1.70;;;;;;;37.30;nan;97718.31;5099128;27;20054;-74
2022/07/16 07:21:47;;;;;;;7.00;1.73;;;;;;;36.96;nan;97715.47;5090921;27;20600;-72
2022/07/16 07:24:23;;;;;;;4.18;1.90;;;;;;;36.51;nan;97715.44;5115752;27;20043;-71
2022/07/16 07:27:28;;;;;;;3.97;1.85;;;;;;;36.15;nan;97713.66;5108972;27;20049;-70
2022/07/16 07:30:18;;;;;;;5.13;2.10;;;;;;;36.48;nan;97710.66;5088417;28;20035;-73
2022/07/16 07:33:00;;;;;;;5.47;2.47;;;;;;;36.80;nan;97711.22;5092839;28;20545;-69
2022/07/16 07:35:49;;;;;;;2.38;2.17;;;;;;;36.90;nan;97706.72;5114806;27;20592;-71
2022/07/16 07:38:32;;;;;;;2.63;2.20;;;;;;;36.94;nan;97695.50;5093906;27;20043;-71
2022/07/16 07:41:21;;;;;;;3.90;1.90;;;;;;;36.98;nan;97691.44;5116269;27;20039;-71
2022/07/16 07:44:03;;;;;;;3.08;2.10;;;;;;;36.72;nan;97695.72;5118139;27;20038;-72
2022/07/16 07:46:52;;;;;;;3.97;2.30;;;;;;;37.10;nan;97687.31;5117509;27;21322;-74
2022/07/16 07:49:35;;;;;;;2.53;2.13;;;;;;;37.18;nan;97683.25;5112160;27;20303;-73
2022/07/16 07:52:32;;;;;;;4.25;2.22;;;;;;;37.12;nan;97673.72;5098691;28;20048;-74
2022/07/16 07:55:11;;;;;;;2.35;1.95;;;;;;;37.04;nan;97672.22;5115295;27;20040;-69
2022/07/16 07:58:29;;;;;;;4.22;2.85;;;;;;;37.06;nan;97661.41;5095736;28;20052;-69
2022/07/16 08:01:12;;;;;;;2.40;2.20;;;;;;;36.58;nan;97651.88;5072705;28;20066;-69
2022/07/16 08:04:09;;;;;;;3.60;2.00;;;;;;;37.01;nan;97653.47;5089228;27;20043;-69
2022/07/16 08:06:51;;;;;;;2.20;2.00;;;;;;;36.64;nan;97644.63;5091618;27;20378;-71
2022/07/16 08:09:48;;;;;;;2.50;2.00;;;;;;;36.71;nan;97638.22;5087971;27;20441;-69
2022/07/16 08:12:45;;;;;;;4.20;2.15;;;;;;;36.86;nan;97633.28;5095138;28;22392;-72
2022/07/16 08:15:21;;;;;;;4.07;2.60;;;;;;;36.88;nan;97624.44;5090027;28;20504;-71
2022/07/16 08:18:16;;;;;;;;;;;;;;;36.96;nan;97615.56;5105274;28;20038;-72
2022/07/16 08:20:52;;;;;;;3.95;2.30;;;;;;;36.96;nan;97609.19;5094486;28;19932;-72
2022/07/16 08:26:43;;;;;;;3.65;2.55;;;;;;;36.95;nan;97599.22;5101719;28;20248;-72
2022/07/16 08:29:39;;;;;;;3.45;2.38;;;;;;;36.94;nan;97590.03;5098809;28;20044;-73
2022/07/16 08:32:15;;;;;;;4.88;2.47;;;;;;;37.07;nan;97587.47;5087483;28;20046;-74
2022/07/16 08:35:11;;;;;;;2.47;2.25;;;;;;;37.06;nan;97574.69;5099023;28;20051;-73
2022/07/16 08:37:48;;;;;;;3.38;2.17;;;;;;;36.99;nan;97561.63;5097257;28;20593;-72
2022/07/16 08:40:41;;;;;;;3.10;2.45;;;;;;;37.10;nan;97555.84;5099728;28;20170;-70
2022/07/16 08:43:23;;;;;;;3.38;2.50;;;;;;;36.60;nan;97553.66;5102194;28;20040;-72
2022/07/16 08:46:13;;;;;;;2.72;2.17;;;;;;;36.62;nan;97554.03;5096147;28;20035;-70
2022/07/16 08:48:56;;;;;;;4.20;2.30;;;;;;;36.64;nan;97541.22;5094802;28;20453;-70
2022/07/16 08:51:51;;;;;;;11.85;2.83;;;;;;;36.24;nan;97537.28;5082413;28;21923;-73
2022/07/16 08:54:51;;;;;;;4.40;2.30;;;;;;;36.09;nan;97531.00;5090418;28;20220;-71
2022/07/16 08:57:41;;;;;;;4.28;2.60;;;;;;;35.95;nan;97514.38;5099784;28;20057;-65
2022/07/16 09:00:30;;;;;;;3.58;2.40;;;;;;;35.98;nan;97510.75;5104854;28;20043;-66
2022/07/16 09:03:19;;;;;;;3.95;2.78;;;;;;;36.31;nan;97495.31;5092886;28;20040;-69
2022/07/16 09:06:01;;;;;;;4.38;2.97;;;;;;;36.52;nan;97490.69;5095387;28;20042;-68
2022/07/16 09:08:58;;;;;;;7.05;3.60;;;;;;;36.44;nan;97479.59;5104543;27;20498;-67
2022/07/16 09:11:42;;;;;;;5.93;2.78;;;;;;;36.59;nan;97471.00;5113030;27;20898;-67
2022/07/16 09:14:37;;;;;;;5.93;3.22;;;;;;;36.59;nan;97471.00;5115439;27;20077;-68
2022/07/16 09:17:13;;;;;;;7.10;3.65;;;;;;;36.61;nan;97465.78;5113796;27;20049;-67
2022/07/16 09:20:03;;;;;;;17.88;4.30;;;;;;;36.53;nan;97458.72;5100090;27;20047;-68
2022/07/16 09:22:52;;;;;;;7.35;5.57;;;;;;;36.30;nan;97454.59;5095226;28;20109;-67
2022/07/16 09:25:34;;;;;;;15.80;5.70;;;;;;;35.94;nan;97468.91;5087095;28;20840;-68
2022/07/16 09:28:25;;;;;;;16.58;5.80;;;;;;;36.02;nan;97459.28;5090084;28;20061;-70
2022/07/16 09:31:07;;;;;;;13.35;6.55;;;;;;;35.98;nan;97455.72;5095667;28;20040;-70
2022/07/16 09:34:28;;;;;;;10.48;5.65;;;;;;;36.18;nan;97460.72;5093452;28;22573;-70
2022/07/16 09:37:10;;;;;;;9.35;6.28;;;;;;;36.11;nan;97452.38;5068426;28;20643;-70
2022/07/16 09:39:59;;;;;;;13.43;5.95;;;;;;;36.26;nan;97442.66;5089034;28;20040;-69
2022/07/16 09:42:41;;;;;;;12.60;5.55;;;;;;;36.32;nan;97432.63;5084847;28;21487;-70
2022/07/16 09:45:30;;;;;;;11.45;6.53;;;;;;;36.41;nan;97435.69;5102066;28;20065;-71
2022/07/16 09:48:35;;;;;;;11.65;6.95;;;;;;;36.48;nan;97429.25;5099179;28;20050;-68
2022/07/16 09:51:21;;;;;;;10.55;6.10;;;;;;;36.40;nan;97431.34;5090608;28;20048;-69
2022/07/16 09:54:35;;;;;;;12.10;5.78;;;;;;;36.25;nan;97432.72;5097025;28;20386;-71
2022/07/16 09:57:32;;;;;;;18.63;7.63;;;;;;;36.29;nan;97432.66;5098540;28;20040;-70
2022/07/16 10:00:08;;;;;;;10.77;6.15;;;;;;;36.36;nan;97422.19;5084695;28;20744;-71
2022/07/16 10:02:57;;;;;;;15.80;5.50;;;;;;;36.41;nan;97432.13;5083120;28;20476;-71
2022/07/16 10:05:46;;;;;;;10.52;5.15;;;;;;;36.38;nan;97428.16;5099007;28;20174;-69
2022/07/16 10:08:28;;;;;;;7.28;5.13;;;;;;;36.23;nan;97430.34;5084563;28;20040;-71
2022/07/16 10:11:18;;;;;;;10.40;4.90;;;;;;;36.24;nan;97425.53;5084283;28;20044;-68
2022/07/16 10:14:00;;;;;;;10.68;5.25;;;;;;;36.13;nan;97420.03;5085989;27;20047;-68
2022/07/16 10:16:50;;;;;;;8.55;5.25;;;;;;;36.20;nan;97408.03;5082171;28;21285;-69
2022/07/16 10:19:36;;;;;;;9.75;4.60;;;;;;;36.28;nan;97412.31;5105341;28;20655;-70
2022/07/16 10:22:32;;;;;;;9.43;4.90;;;;;;;36.19;nan;97410.03;5105002;28;20036;-70
2022/07/16 10:25:19;;;;;;;21.85;5.82;;;;;;;36.19;nan;97410.03;5107969;27;20043;-70
2022/07/16 10:28:08;;;;;;;6.32;4.30;;;;;;;36.05;nan;97408.16;5110029;28;20053;-71
2022/07/16 10:30:52;;;;;;;5.43;3.45;;;;;;;36.09;nan;97419.28;5113273;27;20035;-73
2022/07/16 10:33:41;;;;;;;8.88;3.50;;;;;;;36.10;nan;97423.69;5126531;27;20332;-70
2022/07/16 10:36:46;;;;;;;4.65;3.70;;;;;;;36.12;nan;97421.25;5107575;28;20047;-68
2022/07/16 10:39:35;;;;;;;14.70;4.07;;;;;;;36.11;nan;97422.44;5100482;27;20825;-69
2022/07/16 10:42:17;;;;;;;9.82;5.30;;;;;;;36.10;nan;97422.91;5116159;27;20036;-69
2022/07/16 10:45:06;;;;;;;8.52;3.50;;;;;;;35.90;nan;97439.44;5122539;27;20044;-71
2022/07/16 10:47:58;;;;;;;5.28;3.63;;;;;;;36.21;nan;97438.34;5115974;27;20603;-70
2022/07/16 10:50:40;;;;;;;7.35;3.53;;;;;;;36.14;nan;97423.63;5109984;27;20772;-69
2022/07/16 10:53:35;;;;;;;7.68;3.47;;;;;;;35.88;nan;97425.91;5112680;27;20047;-68
2022/07/16 10:56:42;;;;;;;5.68;3.30;;;;;;;36.16;nan;97419.22;5089760;28;20037;-69
2022/07/16 10:59:36;;;;;;;11.10;3.42;;;;;;;36.12;nan;97414.88;5079534;28;20046;-72
2022/07/16 11:02:25;;;;;;;11.38;3.50;;;;;;;36.00;nan;97410.59;5085860;28;20036;-71
2022/07/16 11:05:10;;;;;;;11.70;4.40;;;;;;;35.98;nan;97402.66;5115588;27;20644;-71
2022/07/16 11:08:09;;;;;;;7.63;4.57;;;;;;;35.96;nan;97398.69;5110519;27;20605;-70
2022/07/16 11:10:59;;;;;;;3.63;2.75;;;;;;;36.02;nan;97397.84;5101045;27;20679;-70
2022/07/16 11:13:42;;;;;;;6.43;3.40;;;;;;;36.02;nan;97413.78;5081260;28;20651;-71
2022/07/16 11:16:36;;;;;;;4.80;3.22;;;;;;;36.00;nan;97400.25;5096161;27;21479;-71
2022/07/16 11:19:18;;;;;;;6.65;3.00;;;;;;;36.02;nan;97397.84;5102726;27;20039;-69
2022/07/16 11:22:08;;;;;;;7.35;3.17;;;;;;;36.03;nan;97388.22;5087543;28;20355;-70
2022/07/16 11:24:52;;;;;;;;;;;;;;;36.04;nan;97383.47;5107628;27;20050;-71
2022/07/16 11:27:44;;;;;;;5.63;2.65;;;;;;;36.04;nan;97384.25;5101133;27;21525;-69
2022/07/16 11:30:27;;;;;;;9.68;2.47;;;;;;;36.16;nan;97379.31;5126539;27;20358;-67
2022/07/16 11:33:16;;;;;;;7.30;3.53;;;;;;;36.17;nan;97378.13;5097266;28;20054;-68
2022/07/16 11:36:13;;;;;;;8.35;3.00;;;;;;;36.15;nan;97377.72;5085923;28;20040;-72
2022/07/16 11:39:08;;;;;;;8.10;3.50;;;;;;;35.94;nan;97379.56;5104786;28;20551;-72
2022/07/16 11:41:53;;;;;;;6.72;2.65;;;;;;;36.02;nan;97375.50;5088844;28;20739;-71
2022/07/16 11:44:47;;;;;;;9.40;3.15;;;;;;;36.11;nan;97374.97;5096125;28;20666;-69
2022/07/16 11:47:29;;;;;;;8.88;2.65;;;;;;;36.16;nan;97379.31;5067820;28;20036;-71
2022/07/16 11:50:18;;;;;;;5.30;2.13;;;;;;;35.96;nan;97379.97;4393553;28;10000777;-67
2022/07/16 11:53:14;;;;;;;3.85;2.15;;;;;;;36.00;nan;97383.50;5087733;28;20495;-70
2022/07/16 11:56:03;;;;;;;4.57;2.50;;;;;;;35.90;nan;97378.03;5077648;28;20568;-72
2022/07/16 11:58:58;;;;;;;7.97;2.95;;;;;;;35.92;nan;97370.81;5055963;28;20216;-67
2022/07/16 12:01:38;;;;;;;10.23;3.25;;;;;;;35.95;nan;97370.00;5074581;28;20050;-67
2022/07/16 12:04:50;;;;;;;9.07;2.80;;;;;;;35.82;nan;97375.31;5080729;28;20043;-69
2022/07/16 12:07:26;;;;;;;15.07;4.20;;;;;;;35.72;nan;97369.84;5078765;28;20097;-68
2022/07/16 12:10:30;;;;;;;8.43;2.78;;;;;;;35.65;nan;97368.66;5065634;28;20043;-67
2022/07/16 12:13:09;;;;;;;6.85;2.72;;;;;;;35.56;nan;97365.59;5041106;28;20052;-71
2022/07/16 12:16:09;;;;;;;7.00;2.53;;;;;;;35.56;nan;97354.44;5079869;28;20051;-71
2022/07/16 12:19:14;;;;;;;12.48;2.90;;;;;;;35.40;nan;97354.97;5078665;28;20602;-70
2022/07/16 12:22:10;;;;;;;4.32;2.15;;;;;;;35.34;nan;97361.44;5080294;28;20820;-71
2022/07/16 12:24:46;;;;;;;4.90;2.53;;;;;;;35.31;nan;97365.03;5078216;28;20582;-69
2022/07/16 12:27:59;;;;;;;8.90;3.20;;;;;;;35.22;nan;97371.88;5057271;28;21234;-68
2022/07/16 12:31:02;;;;;;;5.20;2.70;;;;;;;35.23;nan;97367.88;5077113;28;20061;-69
2022/07/16 12:33:39;;;;;;;7.18;2.50;;;;;;;35.12;nan;97375.50;5078014;28;20601;-70
2022/07/16 12:36:42;;;;;;;5.57;2.22;;;;;;;35.19;nan;97392.22;5088949;28;20085;-72
2022/07/16 12:39:21;;;;;;;7.25;2.50;;;;;;;35.13;nan;97402.19;5082100;28;20066;-70
2022/07/16 12:42:10;;;;;;;6.30;2.22;;;;;;;35.05;nan;97415.41;5074317;28;20051;-71
2022/07/16 12:44:59;;;;;;;4.50;2.53;;;;;;;35.02;nan;97415.41;5079168;28;20048;-68
2022/07/16 12:47:41;;;;;;;2.63;2.05;;;;;;;34.83;nan;97417.53;5077468;28;20093;-71
2022/07/16 12:50:30;;;;;;;6.65;2.50;;;;;;;34.77;nan;97433.09;5082667;28;20039;-70
2022/07/16 12:53:25;;;;;;;7.93;2.97;;;;;;;34.74;nan;97455.41;5081482;28;20039;-70
2022/07/16 12:59:16;;;;;;;7.82;2.92;;;;;;;34.50;nan;97461.44;5079021;28;20618;-70
2022/07/16 13:01:59;;;;;;;8.30;3.20;;;;;;;34.41;nan;97463.88;5067361;28;20044;-70
2022/07/16 13:04:48;;;;;;;5.32;3.50;;;;;;;34.40;nan;97475.44;5068272;28;21146;-71
2022/07/16 13:07:33;;;;;;;8.13;3.47;;;;;;;34.40;nan;97473.44;4710003;28;9999980;-70
2022/07/16 13:10:22;;;;;;;8.50;3.90;;;;;;;34.20;nan;97475.09;5066972;28;20050;-70
2022/07/16 13:13:04;;;;;;;11.10;4.28;;;;;;;34.08;nan;97493.00;5064208;28;20043;-68
2022/07/16 13:15:53;;;;;;;11.43;4.40;;;;;;;34.01;nan;97493.00;5063797;28;21660;-69
2022/07/16 13:18:36;;;;;;;10.85;3.92;;;;;;;34.02;nan;97489.03;5061392;28;21410;-70
2022/07/16 13:21:27;;;;;;;5.88;3.60;;;;;;;33.96;nan;97487.84;4702070;28;10000150;-69
2022/07/16 13:24:05;;;;;;;7.88;3.70;;;;;;;33.93;nan;97492.22;5065606;28;20048;-69
2022/07/16 13:26:54;;;;;;;8.35;3.97;;;;;;;33.70;nan;97485.06;5064501;28;20037;-70
2022/07/16 13:30:00;;;;;;;8.45;4.25;;;;;;;33.70;nan;97485.06;5066083;28;20803;-69